Time;durP1;ratioP1;P1;durP2;ratioP2;P2;SDS_P1;SDS_P2;PMS_P1;PMS_P2;Temp;Humidity;BMP_temperature;BMP_pressure;BME280_temperature;BME280_humidity;BME280_pressure;Samples;Min_cycle;Max_cycle;Signal;HPM_P1;HPM_P2
2023/09/30 00:00:33;;;;;;;8.18;3.00;;;;;;;14.42;100.00;101516.22;8328421;28;20048;-63
2023/09/30 00:04:34;;;;;;;8.00;3.55;;;;;;;14.57;100.00;101522.97;8328856;28;20034;-64
2023/09/30 00:08:34;;;;;;;13.27;4.28;;;;;;;14.70;100.00;101523.56;8327836;28;20037;-64
2023/09/30 00:12:35;;;;;;;11.32;3.63;;;;;;;14.65;100.00;101523.16;8328068;28;20041;-63
2023/09/30 00:16:35;;;;;;;7.80;2.95;;;;;;;14.69;100.00;101535.47;8328592;28;20492;-63
2023/09/30 00:20:36;;;;;;;10.52;2.83;;;;;;;14.36;100.00;101549.44;8328575;28;20518;-62
2023/09/30 00:24:36;;;;;;;6.65;2.50;;;;;;;14.12;100.00;101539.91;8323975;28;20114;-60
2023/09/30 00:28:36;;;;;;;10.70;3.10;;;;;;;14.12;100.00;101527.16;8328375;28;20984;-61
2023/09/30 00:32:37;;;;;;;10.98;3.40;;;;;;;13.91;100.00;101523.66;8326046;28;20467;-61
2023/09/30 00:36:37;;;;;;;9.90;3.03;;;;;;;14.02;100.00;101528.13;8327552;28;20045;-61
2023/09/30 00:40:38;;;;;;;10.02;3.92;;;;;;;13.98;100.00;101526.69;8301906;28;20535;-61
2023/09/30 00:44:38;;;;;;;15.02;4.10;;;;;;;14.02;100.00;101526.25;8327697;28;20034;-60
2023/09/30 00:48:39;;;;;;;15.77;4.53;;;;;;;14.04;100.00;101537.88;8328065;28;20033;-64
2023/09/30 00:52:40;;;;;;;12.45;4.78;;;;;;;14.37;100.00;101551.19;8327111;28;20037;-64
2023/09/30 00:56:45;;;;;;;12.40;4.55;;;;;;;14.61;100.00;101543.47;8327682;28;20448;-64
2023/09/30 01:00:47;;;;;;;9.68;3.70;;;;;;;14.23;100.00;101547.94;8326692;28;20045;-64
2023/09/30 01:04:47;;;;;;;8.75;4.30;;;;;;;14.09;100.00;101530.13;8326815;28;20041;-64
2023/09/30 01:08:49;;;;;;;10.30;4.07;;;;;;;13.90;100.00;101538.22;8326525;28;20041;-63
2023/09/30 01:12:50;;;;;;;11.77;4.32;;;;;;;14.02;100.00;101545.28;8325457;28;20104;-63
2023/09/30 01:16:50;;;;;;;11.45;3.85;;;;;;;13.87;100.00;101538.50;8309537;28;20048;-64
2023/09/30 01:20:52;;;;;;;12.25;4.10;;;;;;;14.08;100.00;101542.03;8325864;28;20065;-63
2023/09/30 01:24:52;;;;;;;13.82;4.82;;;;;;;14.07;100.00;101536.72;8325758;28;20040;-64
2023/09/30 01:28:54;;;;;;;13.25;4.97;;;;;;;14.13;100.00;101541.63;8327001;28;20524;-65
2023/09/30 01:32:55;;;;;;;13.93;4.85;;;;;;;14.31;100.00;101551.75;8297744;28;20045;-64
2023/09/30 01:36:57;;;;;;;9.88;5.28;;;;;;;14.11;100.00;101555.34;8326030;28;20038;-64
2023/09/30 01:40:57;;;;;;;11.30;4.22;;;;;;;14.02;100.00;101567.06;8326031;28;20075;-64
2023/09/30 01:44:58;;;;;;;12.95;4.30;;;;;;;13.88;100.00;101551.97;8323736;28;20087;-64
2023/09/30 01:48:58;;;;;;;12.00;6.18;;;;;;;14.06;100.00;101557.59;8326123;28;20079;-65
2023/09/30 01:52:59;;;;;;;13.10;5.75;;;;;;;14.14;100.00;101544.19;8291984;28;20052;-63
2023/09/30 01:56:59;;;;;;;9.70;5.05;;;;;;;14.23;100.00;101565.16;8312907;28;20363;-64
2023/09/30 02:01:03;;;;;;;14.35;5.82;;;;;;;14.51;100.00;101563.50;8325480;28;20045;-64
2023/09/30 02:05:04;;;;;;;9.68;4.60;;;;;;;14.05;100.00;101576.78;8299586;28;20106;-64
2023/09/30 02:09:07;;;;;;;13.32;5.47;;;;;;;13.91;100.00;101556.28;8305998;28;20041;-65
2023/09/30 02:13:08;;;;;;;11.48;4.70;;;;;;;13.97;100.00;101536.72;8268859;28;20045;-63
2023/09/30 02:17:09;;;;;;;11.80;4.60;;;;;;;13.95;100.00;101560.44;8304007;28;20040;-64
2023/09/30 02:21:09;;;;;;;12.00;4.95;;;;;;;13.88;100.00;101563.84;8324271;28;20546;-64
2023/09/30 02:25:12;;;;;;;15.00;5.68;;;;;;;13.80;100.00;101564.53;8318558;28;20038;-63
2023/09/30 02:29:12;;;;;;;9.48;4.40;;;;;;;13.78;100.00;101558.34;8269275;28;20033;-63
2023/09/30 02:33:12;;;;;;;16.40;5.18;;;;;;;13.74;100.00;101560.50;8270236;28;20511;-63
2023/09/30 02:37:13;;;;;;;13.82;5.55;;;;;;;13.69;100.00;101560.03;8270058;28;20435;-63
2023/09/30 02:41:15;;;;;;;11.60;5.78;;;;;;;13.66;100.00;101559.44;8290567;28;20044;-61
2023/09/30 02:45:17;;;;;;;11.95;6.15;;;;;;;13.68;100.00;101569.19;8323575;28;20546;-60
2023/09/30 02:49:19;;;;;;;13.15;6.30;;;;;;;13.64;100.00;101572.31;8275959;28;20152;-63
2023/09/30 02:53:19;;;;;;;9.32;5.85;;;;;;;13.71;100.00;101565.34;8268681;28;20034;-63
2023/09/30 02:57:20;;;;;;;17.05;6.70;;;;;;;13.92;100.00;101571.59;8269572;28;20034;-62
2023/09/30 03:01:21;;;;;;;17.15;6.90;;;;;;;13.58;100.00;101570.13;8286551;28;20053;-60
2023/09/30 03:05:23;;;;;;;12.20;6.55;;;;;;;13.67;100.00;101572.03;8323599;28;20526;-60
2023/09/30 03:09:23;;;;;;;12.68;6.05;;;;;;;13.79;100.00;101574.53;8323986;28;20037;-60
2023/09/30 03:13:24;;;;;;;12.52;5.55;;;;;;;13.44;100.00;101576.78;8292810;28;20029;-64
2023/09/30 03:17:25;;;;;;;14.18;5.40;;;;;;;13.55;100.00;101581.28;8322483;28;20068;-60
2023/09/30 03:21:26;;;;;;;12.30;5.60;;;;;;;13.51;100.00;101568.97;8322300;28;20038;-60
2023/09/30 03:25:26;;;;;;;13.00;5.80;;;;;;;13.42;100.00;101583.34;8322494;28;20487;-60
2023/09/30 03:29:27;;;;;;;14.98;5.90;;;;;;;13.44;100.00;101575.91;8323686;28;20089;-60
2023/09/30 03:33:27;;;;;;;12.43;5.50;;;;;;;13.36;100.00;101579.28;8269867;28;20064;-62
2023/09/30 03:37:28;;;;;;;8.43;5.53;;;;;;;13.30;100.00;101573.53;8268666;28;20044;-63
2023/09/30 03:41:29;;;;;;;13.90;5.15;;;;;;;13.06;100.00;101565.63;8301185;28;20630;-63
2023/09/30 03:45:29;;;;;;;11.55;5.55;;;;;;;13.19;100.00;101554.56;8321605;28;20037;-64
2023/09/30 03:49:30;;;;;;;14.80;5.55;;;;;;;13.25;100.00;101573.06;8285601;28;20042;-63
2023/09/30 03:53:30;;;;;;;14.82;6.07;;;;;;;13.22;100.00;101565.16;8268880;28;20604;-63
2023/09/30 03:57:31;;;;;;;13.48;5.88;;;;;;;12.89;100.00;101560.72;8302384;28;20044;-63
2023/09/30 04:01:32;;;;;;;15.90;5.90;;;;;;;13.02;100.00;101579.59;8311506;28;20450;-63
2023/09/30 04:05:36;;;;;;;21.10;6.85;;;;;;;12.81;100.00;101556.97;8282189;28;20061;-63
2023/09/30 04:09:36;;;;;;;12.60;5.60;;;;;;;12.93;100.00;101558.63;8272114;28;20348;-62
2023/09/30 04:13:37;;;;;;;17.90;6.35;;;;;;;12.94;100.00;101549.50;8274298;28;20052;-62
2023/09/30 04:17:38;;;;;;;28.60;6.68;;;;;;;12.83;100.00;101549.53;8274250;28;20274;-63
2023/09/30 04:21:39;;;;;;;13.75;5.70;;;;;;;12.77;100.00;101559.06;8273947;28;20494;-63
2023/09/30 04:25:40;;;;;;;10.15;4.88;;;;;;;12.68;100.00;101548.97;8273840;28;20034;-63
2023/09/30 04:29:41;;;;;;;10.63;5.05;;;;;;;12.37;100.00;101532.66;8304012;28;20041;-60
2023/09/30 04:33:42;;;;;;;13.70;5.05;;;;;;;12.44;100.00;101539.31;8328038;28;20044;-61
2023/09/30 04:37:43;;;;;;;10.20;5.40;;;;;;;12.53;100.00;101554.84;8327492;28;20037;-60
2023/09/30 04:41:43;;;;;;;9.43;5.25;;;;;;;12.54;100.00;101561.97;8314506;28;20149;-63
2023/09/30 04:45:44;;;;;;;15.23;6.13;;;;;;;12.73;100.00;101575.72;8271223;28;20033;-63
2023/09/30 04:49:45;;;;;;;11.20;5.40;;;;;;;12.74;100.00;101575.59;8272337;28;20041;-63
2023/09/30 04:53:46;;;;;;;10.40;4.95;;;;;;;12.59;100.00;101597.75;8293994;28;20049;-63
2023/09/30 04:57:47;;;;;;;13.98;5.68;;;;;;;12.62;100.00;101608.31;8327398;28;20041;-63
2023/09/30 05:01:48;;;;;;;10.10;5.75;;;;;;;12.39;100.00;101584.94;8307130;28;20041;-63
2023/09/30 05:05:48;;;;;;;15.50;5.68;;;;;;;12.59;100.00;101578.75;8273079;28;20045;-63
2023/09/30 05:09:49;;;;;;;14.77;5.78;;;;;;;12.52;100.00;101570.25;8297246;28;20121;-63
2023/09/30 05:13:50;;;;;;;45.97;7.45;;;;;;;12.67;100.00;101574.41;8316957;28;20425;-63
2023/09/30 05:17:51;;;;;;;11.13;5.88;;;;;;;12.50;100.00;101576.78;8324885;28;20497;-64
2023/09/30 05:21:52;;;;;;;12.18;5.85;;;;;;;12.80;100.00;101585.94;8325363;28;20037;-63
2023/09/30 05:25:52;;;;;;;15.60;4.78;;;;;;;12.19;100.00;101599.25;8326659;28;20042;-63
2023/09/30 05:29:54;;;;;;;14.50;5.60;;;;;;;12.51;100.00;101609.22;8322955;28;20507;-63
2023/09/30 05:33:55;;;;;;;11.82;5.35;;;;;;;12.55;100.00;101596.25;8284011;28;20055;-63
2023/09/30 05:37:55;;;;;;;9.40;4.57;;;;;;;12.62;100.00;101606.47;8272152;28;20254;-63
2023/09/30 05:41:56;;;;;;;10.75;5.28;;;;;;;12.70;100.00;101627.53;8296088;28;20411;-64
2023/09/30 05:45:57;;;;;;;10.90;5.15;;;;;;;12.69;100.00;101614.97;8325159;28;20034;-63
2023/09/30 05:49:58;;;;;;;14.02;6.10;;;;;;;12.69;100.00;101591.38;8324792;28;20045;-60
2023/09/30 05:53:59;;;;;;;12.07;5.45;;;;;;;12.70;100.00;101603.13;8324358;28;20087;-60
2023/09/30 05:58:00;;;;;;;12.88;5.68;;;;;;;12.63;100.00;101610.06;8325267;28;20302;-60
2023/09/30 06:02:02;;;;;;;15.25;5.80;;;;;;;12.79;100.00;101621.34;8275205;28;20092;-63
2023/09/30 06:06:03;;;;;;;10.00;5.30;;;;;;;12.94;100.00;101626.38;8305111;28;20048;-61
2023/09/30 06:10:05;;;;;;;12.25;5.07;;;;;;;12.84;100.00;101621.84;8325673;28;20033;-64
2023/09/30 06:14:06;;;;;;;11.50;6.32;;;;;;;13.00;100.00;101631.31;8313099;28;20049;-60
2023/09/30 06:18:07;;;;;;;14.00;5.60;;;;;;;13.27;100.00;101628.13;8323445;28;20499;-60
2023/09/30 06:22:07;;;;;;;15.45;5.38;;;;;;;13.58;100.00;101627.19;8320093;28;20049;-60
2023/09/30 06:26:09;;;;;;;11.23;6.10;;;;;;;13.40;100.00;101623.34;8323115;28;20064;-60
2023/09/30 06:30:11;;;;;;;13.23;5.68;;;;;;;13.37;100.00;101629.03;8324318;28;20057;-60
2023/09/30 06:34:11;;;;;;;12.85;6.82;;;;;;;13.70;100.00;101624.25;8319967;28;20029;-60
2023/09/30 06:38:12;;;;;;;16.48;6.88;;;;;;;13.83;100.00;101621.34;8322925;28;20188;-60
2023/09/30 06:42:13;;;;;;;14.45;7.10;;;;;;;14.18;100.00;101637.28;8321411;28;20526;-60
2023/09/30 06:46:13;;;;;;;14.15;7.18;;;;;;;14.44;100.00;101644.84;8316952;28;20048;-61
2023/09/30 06:50:17;;;;;;;16.85;7.55;;;;;;;14.49;100.00;101631.66;8315704;28;20116;-62
2023/09/30 06:54:17;;;;;;;13.93;8.07;;;;;;;14.68;100.00;101639.91;8319698;28;20557;-60
2023/09/30 06:58:21;;;;;;;18.85;8.32;;;;;;;14.78;100.00;101646.25;8318521;28;20400;-61
2023/09/30 07:02:21;;;;;;;18.88;9.57;;;;;;;15.08;100.00;101662.50;8319065;28;20041;-63
2023/09/30 07:06:23;;;;;;;21.77;10.68;;;;;;;15.14;100.00;101656.47;8317607;28;20041;-63
2023/09/30 07:10:24;;;;;;;21.50;10.38;;;;;;;15.25;100.00;101647.31;8315552;28;20047;-64
2023/09/30 07:14:25;;;;;;;22.17;10.25;;;;;;;15.44;100.00;101647.31;8315384;28;20043;-63
2023/09/30 07:18:25;;;;;;;19.27;10.43;;;;;;;15.92;100.00;101647.25;8317760;28;20048;-64
2023/09/30 07:22:26;;;;;;;21.33;10.82;;;;;;;16.08;100.00;101661.13;8317973;28;20037;-63
2023/09/30 07:26:27;;;;;;;17.20;10.07;;;;;;;16.02;100.00;101664.44;8317908;28;20375;-63
2023/09/30 07:30:28;;;;;;;18.25;10.30;;;;;;;16.01;100.00;101668.19;8319481;28;20041;-63
2023/09/30 07:34:28;;;;;;;20.45;10.95;;;;;;;16.26;100.00;101683.91;8317994;28;20499;-63
2023/09/30 07:38:29;;;;;;;20.17;11.32;;;;;;;16.36;100.00;101684.75;8318379;28;20542;-63
2023/09/30 07:42:30;;;;;;;22.88;11.48;;;;;;;16.78;100.00;101695.09;8321670;28;20557;-63
2023/09/30 07:46:31;;;;;;;22.55;11.27;;;;;;;16.93;97.72;101701.72;8324062;28;20474;-63
2023/09/30 07:50:31;;;;;;;17.20;10.57;;;;;;;16.91;98.90;101700.16;8320905;28;20084;-63
2023/09/30 07:54:32;;;;;;;15.85;9.60;;;;;;;17.31;93.99;101695.16;8325270;28;20033;-63
2023/09/30 07:58:33;;;;;;;17.08;9.88;;;;;;;17.50;95.32;101690.44;8322039;28;20041;-63
2023/09/30 08:02:33;;;;;;;16.73;9.32;;;;;;;17.51;93.38;101685.84;8317618;28;20057;-63
2023/09/30 08:06:33;;;;;;;13.60;8.90;;;;;;;17.81;92.24;101701.81;8313774;28;20048;-63
2023/09/30 08:10:36;;;;;;;15.45;9.15;;;;;;;17.54;94.17;101712.88;8300308;28;20478;-63
2023/09/30 08:14:36;;;;;;;16.13;9.35;;;;;;;17.98;96.89;101714.63;8321931;28;20041;-63
2023/09/30 08:18:37;;;;;;;18.70;9.07;;;;;;;18.19;92.75;101726.06;8317692;28;20069;-63
2023/09/30 08:22:37;;;;;;;14.05;8.85;;;;;;;18.28;92.72;101729.72;8320709;28;20045;-64
2023/09/30 08:26:38;;;;;;;12.98;8.25;;;;;;;18.24;90.10;101729.16;8318529;28;20129;-63
2023/09/30 08:30:38;;;;;;;14.80;9.43;;;;;;;18.43;90.29;101720.78;8318183;28;20045;-64
2023/09/30 08:34:39;;;;;;;14.55;8.63;;;;;;;18.31;88.78;101713.84;8321519;28;20070;-63
2023/09/30 08:38:41;;;;;;;15.35;8.60;;;;;;;18.22;89.67;101720.28;8313423;28;20107;-62
2023/09/30 08:42:42;;;;;;;13.73;9.20;;;;;;;18.84;89.84;101709.00;8319722;28;20111;-65
2023/09/30 08:46:43;;;;;;;13.35;8.70;;;;;;;18.78;91.29;101717.88;8320162;28;20077;-63
2023/09/30 08:50:45;;;;;;;17.13;9.07;;;;;;;19.03;88.55;101725.19;8317643;28;20053;-64
2023/09/30 08:54:45;;;;;;;13.75;7.68;;;;;;;18.98;86.75;101719.38;8316456;28;20025;-61
2023/09/30 08:58:46;;;;;;;18.30;8.13;;;;;;;19.19;84.87;101713.44;8315455;28;20575;-62
2023/09/30 09:02:46;;;;;;;14.38;7.63;;;;;;;19.13;85.04;101711.34;8313829;28;20522;-61
2023/09/30 09:06:47;;;;;;;13.07;7.60;;;;;;;19.57;84.13;101698.28;8315989;28;20454;-61
2023/09/30 09:10:57;;;;;;;13.35;6.97;;;;;;;20.84;77.22;101705.50;8319670;28;20053;-61
2023/09/30 09:14:58;;;;;;;11.82;6.32;;;;;;;22.70;69.50;101701.16;8316737;28;20037;-61
2023/09/30 09:18:58;;;;;;;14.05;6.30;;;;;;;23.42;66.94;101695.75;8319897;28;20578;-61
2023/09/30 09:23:00;;;;;;;10.60;5.72;;;;;;;23.70;65.57;101693.91;8301544;28;20447;-61
2023/09/30 09:27:05;;;;;;;12.48;5.80;;;;;;;25.22;62.74;101699.28;8319135;28;20397;-62
2023/09/30 09:31:22;;;;;;;9.73;5.00;;;;;;;25.66;61.03;101683.06;8300969;28;20034;-61
2023/09/30 09:35:25;;;;;;;11.05;5.72;;;;;;;25.56;59.99;101685.38;8319600;28;20061;-61
2023/09/30 09:39:30;;;;;;;7.72;4.78;;;;;;;26.19;58.07;101684.81;8318672;28;20037;-62
2023/09/30 09:43:34;;;;;;;12.02;4.93;;;;;;;26.03;58.47;101688.03;8318540;28;20044;-61
2023/09/30 09:47:35;;;;;;;11.27;4.33;;;;;;;26.39;57.23;101690.34;8318572;28;20047;-62
2023/09/30 09:51:37;;;;;;;10.13;4.68;;;;;;;27.21;56.54;101687.78;8317994;28;20048;-63
2023/09/30 09:55:41;;;;;;;9.90;4.45;;;;;;;27.54;55.25;101689.34;8314813;28;20048;-61
2023/09/30 09:59:45;;;;;;;6.40;2.97;;;;;;;26.29;53.92;101698.25;8315796;28;20053;-61
2023/09/30 10:03:45;;;;;;;8.52;2.83;;;;;;;26.83;54.02;101702.47;8314113;28;20064;-61
2023/09/30 10:08:07;;;;;;;6.07;3.13;;;;;;;27.48;52.15;101706.06;8317010;28;20545;-61
2023/09/30 10:12:08;;;;;;;8.52;3.03;;;;;;;24.51;57.92;101702.50;8308392;28;20056;-62
2023/09/30 10:20:49;;;;;;;10.02;3.00;;;;;;;27.21;56.03;101718.34;8324180;27;20388;-62
2023/09/30 10:24:53;;;;;;;6.85;3.13;;;;;;;28.58;51.83;101704.41;8306916;28;20044;-62
2023/09/30 10:28:53;;;;;;;10.98;3.08;;;;;;;28.58;52.30;101704.41;8297252;28;20104;-59
2023/09/30 10:37:23;;;;;;;7.13;2.10;;;;;;;26.01;54.96;101712.31;8414571;27;20865;-62
2023/09/30 10:45:56;;;;;;;10.98;2.72;;;;;;;26.08;54.52;101713.22;8298387;28;20442;-63
2023/09/30 10:49:56;;;;;;;5.72;1.85;;;;;;;26.53;53.65;101709.53;8295341;28;20048;-63
2023/09/30 10:53:59;;;;;;;5.28;2.20;;;;;;;26.93;52.32;101715.91;8298749;28;20496;-63
2023/09/30 10:58:00;;;;;;;8.38;1.73;;;;;;;28.42;50.20;101724.44;8299027;28;20045;-62
2023/09/30 11:02:01;;;;;;;8.45;2.13;;;;;;;27.75;51.45;101730.69;8294685;28;20064;-62
2023/09/30 11:06:03;;;;;;;7.38;1.80;;;;;;;27.85;50.49;101713.53;8309916;28;20140;-62
2023/09/30 11:10:05;;;;;;;7.35;2.10;;;;;;;28.55;48.57;101704.88;8308201;28;20075;-60
2023/09/30 11:14:27;;;;;;;10.00;2.45;;;;;;;28.10;49.09;101694.97;8302373;28;20525;-61
2023/09/30 11:18:29;;;;;;;8.95;2.63;;;;;;;27.53;49.64;101686.81;8300862;28;20038;-60
2023/09/30 11:22:30;;;;;;;3.10;1.50;;;;;;;26.02;54.57;101697.41;8306167;28;20088;-58
2023/09/30 11:26:32;;;;;;;10.48;4.13;;;;;;;24.44;57.15;101682.25;8309028;28;20867;-56
2023/09/30 11:30:34;;;;;;;9.60;2.80;;;;;;;24.94;54.95;101684.69;8311927;28;20046;-60
2023/09/30 11:34:36;;;;;;;5.93;2.00;;;;;;;25.56;53.96;101666.00;8312284;28;20090;-60
2023/09/30 11:38:36;;;;;;;7.90;1.98;;;;;;;25.70;54.22;101681.56;8312110;28;20601;-59
2023/09/30 11:42:38;;;;;;;6.68;2.15;;;;;;;27.24;49.82;101676.25;8310676;28;20614;-60
2023/09/30 11:47:04;;;;;;;9.27;3.42;;;;;;;26.93;49.75;101678.94;8311799;28;20415;-60
2023/09/30 11:51:04;;;;;;;4.20;1.67;;;;;;;26.02;51.83;101686.31;8290920;28;20041;-62
2023/09/30 11:55:05;;;;;;;5.68;1.48;;;;;;;27.96;48.22;101673.91;8293004;28;20476;-63
2023/09/30 11:59:06;;;;;;;3.60;1.65;;;;;;;29.43;47.76;101670.78;8288860;28;20037;-63
2023/09/30 12:03:06;;;;;;;6.97;2.05;;;;;;;29.24;46.83;101655.19;8282668;28;20042;-63
2023/09/30 12:07:08;;;;;;;5.72;1.83;;;;;;;26.95;50.25;101654.59;8284412;28;20403;-62
2023/09/30 12:11:12;;;;;;;6.75;1.70;;;;;;;25.96;51.88;101642.78;8285916;28;20129;-61
2023/09/30 12:15:13;;;;;;;4.72;2.20;;;;;;;25.01;53.08;101635.78;8287969;28;20248;-61
2023/09/30 12:19:15;;;;;;;8.00;1.83;;;;;;;25.75;53.47;101628.28;8286948;28;20050;-60
2023/09/30 12:23:18;;;;;;;6.93;1.88;;;;;;;25.60;51.60;101620.19;8287553;28;20527;-60
2023/09/30 12:27:18;;;;;;;6.63;2.10;;;;;;;25.69;51.83;101618.03;8254038;28;20030;-59
2023/09/30 12:31:20;;;;;;;5.22;1.83;;;;;;;24.46;55.77;101608.25;8284169;28;20049;-60
2023/09/30 12:35:21;;;;;;;10.73;2.30;;;;;;;24.21;55.41;101609.81;8285089;28;20042;-61
2023/09/30 12:39:23;;;;;;;7.93;1.83;;;;;;;24.42;53.43;101604.16;8287362;28;20038;-60
2023/09/30 12:43:24;;;;;;;4.90;1.73;;;;;;;24.77;53.64;101606.69;8288339;28;20046;-59
2023/09/30 12:47:25;;;;;;;7.13;1.90;;;;;;;24.28;55.71;101610.69;8286579;28;20137;-60
2023/09/30 12:51:25;;;;;;;3.97;1.85;;;;;;;24.13;57.55;101607.19;8286793;28;20049;-60
2023/09/30 12:55:26;;;;;;;9.00;2.15;;;;;;;23.08;57.13;101617.19;8282356;28;20364;-60
2023/09/30 12:59:27;;;;;;;5.28;2.00;;;;;;;23.13;57.17;101617.47;8286157;28;20058;-61
2023/09/30 13:03:28;;;;;;;6.32;2.08;;;;;;;23.19;58.54;101616.69;8284596;28;20105;-60
2023/09/30 13:07:28;;;;;;;6.60;2.08;;;;;;;23.02;58.42;101609.69;8285329;28;20100;-60
2023/09/30 13:11:29;;;;;;;8.02;2.42;;;;;;;22.66;58.15;101600.56;8281523;28;20100;-59
2023/09/30 13:15:29;;;;;;;6.03;1.85;;;;;;;22.37;58.83;101610.72;8284692;28;20173;-60
2023/09/30 13:19:30;;;;;;;9.40;2.25;;;;;;;22.45;59.16;101599.59;8284279;28;20169;-63
2023/09/30 13:23:30;;;;;;;9.68;1.95;;;;;;;22.68;59.41;101592.94;8284764;28;20503;-63
2023/09/30 13:27:32;;;;;;;6.78;2.10;;;;;;;22.77;58.39;101591.78;8279506;28;20046;-63
2023/09/30 13:31:33;;;;;;;4.88;1.83;;;;;;;22.91;59.44;101598.31;8272811;28;20749;-63
2023/09/30 13:35:36;;;;;;;7.57;2.30;;;;;;;22.52;58.69;101584.91;8272470;28;20407;-63
2023/09/30 13:39:36;;;;;;;6.82;2.00;;;;;;;22.31;58.55;101583.91;8280088;28;20034;-63
2023/09/30 13:43:37;;;;;;;5.95;2.38;;;;;;;22.21;58.59;101586.97;8270520;28;20056;-63
2023/09/30 13:47:37;;;;;;;5.50;2.10;;;;;;;22.45;59.81;101563.78;8259642;28;20157;-63
2023/09/30 13:51:38;;;;;;;6.10;2.05;;;;;;;22.51;59.12;101563.88;8251262;28;20510;-63
2023/09/30 13:55:39;;;;;;;7.43;2.05;;;;;;;22.57;59.34;101557.59;8274594;28;20072;-63
2023/09/30 13:59:41;;;;;;;7.57;2.00;;;;;;;22.38;59.71;101552.66;8279284;28;20041;-62
2023/09/30 14:03:43;;;;;;;8.18;2.25;;;;;;;22.43;60.08;101561.22;8286329;28;20124;-64
2023/09/30 14:07:43;;;;;;;5.55;1.90;;;;;;;22.35;62.06;101544.75;8279113;28;20128;-62
2023/09/30 14:11:44;;;;;;;6.60;1.98;;;;;;;22.24;59.72;101545.28;8284274;28;20042;-62
2023/09/30 14:15:46;;;;;;;9.38;2.65;;;;;;;22.05;60.09;101540.31;8278674;28;20045;-63
2023/09/30 14:19:47;;;;;;;6.00;2.08;;;;;;;22.03;61.23;101542.44;8275530;28;20496;-62
2023/09/30 14:23:47;;;;;;;7.03;1.90;;;;;;;22.34;60.29;101534.78;8277530;28;20447;-62
2023/09/30 14:27:48;;;;;;;5.35;1.92;;;;;;;22.26;60.46;101540.41;8274200;28;20334;-62
2023/09/30 14:31:49;;;;;;;9.48;2.35;;;;;;;22.41;59.90;101541.25;8278547;28;20048;-62
2023/09/30 14:35:50;;;;;;;12.13;2.42;;;;;;;22.33;60.39;101535.00;8285075;28;20038;-62
2023/09/30 14:39:50;;;;;;;8.02;2.00;;;;;;;22.23;62.56;101532.50;8284490;28;20046;-63
2023/09/30 14:43:51;;;;;;;7.15;1.85;;;;;;;22.11;60.31;101534.03;8284925;28;20089;-62
2023/09/30 14:47:51;;;;;;;7.88;2.28;;;;;;;22.10;62.34;101526.84;8285629;28;20483;-63
2023/09/30 14:51:52;;;;;;;4.60;2.03;;;;;;;22.11;61.81;101523.03;8284135;28;20141;-62
2023/09/30 14:55:52;;;;;;;6.40;2.20;;;;;;;22.08;61.62;101520.66;8278741;28;20046;-61
2023/09/30 14:59:52;;;;;;;5.25;2.22;;;;;;;21.90;61.39;101520.19;8279358;28;20459;-61
2023/09/30 15:03:53;;;;;;;9.25;2.28;;;;;;;21.64;61.98;101521.63;8278972;28;20061;-61
2023/09/30 15:07:54;;;;;;;8.57;2.08;;;;;;;21.73;61.92;101523.25;8282895;28;20030;-59
2023/09/30 15:11:54;;;;;;;7.80;2.30;;;;;;;21.56;61.77;101511.56;8276231;28;20404;-60
2023/09/30 15:15:55;;;;;;;4.93;1.98;;;;;;;21.76;61.90;101506.41;8282753;28;20041;-60
2023/09/30 15:19:58;;;;;;;8.90;2.60;;;;;;;21.54;62.14;101486.16;8277506;28;20049;-60
2023/09/30 15:24:00;;;;;;;7.38;2.47;;;;;;;21.61;63.10;101495.34;8283253;28;20046;-59
2023/09/30 15:28:01;;;;;;;6.55;2.42;;;;;;;21.52;63.78;101504.72;8283070;28;20482;-61
2023/09/30 15:32:03;;;;;;;6.13;2.05;;;;;;;21.81;62.50;101503.94;8286755;28;20077;-59
2023/09/30 15:36:09;;;;;;;7.10;2.20;;;;;;;21.48;62.30;101502.53;8288557;28;20104;-60
2023/09/30 15:40:10;;;;;;;8.23;2.47;;;;;;;21.63;61.97;101500.66;8271104;28;20492;-62
2023/09/30 15:44:10;;;;;;;6.18;2.13;;;;;;;21.42;62.19;101504.16;8284304;28;20559;-62
2023/09/30 15:48:13;;;;;;;7.30;1.92;;;;;;;21.60;62.52;101507.41;8264707;28;20045;-62
2023/09/30 15:52:14;;;;;;;9.00;2.22;;;;;;;21.43;62.00;101502.28;8281095;28;20045;-62
2023/09/30 15:56:14;;;;;;;8.18;2.30;;;;;;;21.37;62.26;101512.09;8282357;28;20095;-62
2023/09/30 16:00:15;;;;;;;7.97;2.42;;;;;;;21.53;63.09;101505.59;8286266;28;20302;-64
2023/09/30 16:04:15;;;;;;;6.00;2.40;;;;;;;21.49;63.50;101498.75;8286164;28;20129;-64
2023/09/30 16:08:16;;;;;;;7.20;2.10;;;;;;;21.37;63.02;101505.75;8289439;28;20057;-64
2023/09/30 16:12:16;;;;;;;7.03;2.58;;;;;;;21.24;64.15;101500.88;8288201;28;20066;-59
2023/09/30 16:16:18;;;;;;;9.90;2.97;;;;;;;21.19;63.84;101503.31;8288380;28;20042;-60
2023/09/30 16:20:23;;;;;;;4.47;1.95;;;;;;;21.08;66.48;101501.03;8285810;28;20144;-61
2023/09/30 16:24:24;;;;;;;7.35;2.40;;;;;;;21.15;66.35;101491.00;8280607;28;20046;-60
2023/09/30 16:28:24;;;;;;;9.38;2.25;;;;;;;20.99;65.54;101492.00;8287506;28;20374;-60
2023/09/30 16:32:25;;;;;;;4.82;2.45;;;;;;;20.93;67.12;101502.84;8280029;28;20034;-60
2023/09/30 16:36:25;;;;;;;5.70;2.03;;;;;;;20.71;70.94;101512.78;8279717;28;20062;-61
2023/09/30 16:40:26;;;;;;;5.75;2.17;;;;;;;20.62;75.55;101510.28;8287180;28;20518;-61
2023/09/30 16:44:27;;;;;;;6.70;2.05;;;;;;;20.79;76.42;101514.59;8285098;28;20104;-64
2023/09/30 16:48:27;;;;;;;6.22;1.88;;;;;;;20.12;79.67;101505.22;8283164;28;20037;-60
2023/09/30 16:52:28;;;;;;;10.75;2.30;;;;;;;19.85;82.11;101505.63;8286976;28;20034;-62
2023/09/30 16:56:29;;;;;;;4.88;1.98;;;;;;;19.76;83.76;101500.34;8280514;28;20042;-62
2023/09/30 17:00:31;;;;;;;7.78;2.63;;;;;;;19.13;86.65;101502.97;8286478;28;20571;-62
2023/09/30 17:04:31;;;;;;;7.55;2.38;;;;;;;18.96;87.95;101509.47;8279622;28;20038;-64
2023/09/30 17:08:32;;;;;;;3.95;2.17;;;;;;;18.85;84.52;101512.56;8287057;28;20065;-63
2023/09/30 17:12:32;;;;;;;7.18;2.60;;;;;;;18.92;83.35;101511.72;8282226;28;20045;-62
2023/09/30 17:16:33;;;;;;;6.90;2.35;;;;;;;18.88;85.63;101510.31;8288268;28;20050;-62
2023/09/30 17:20:34;;;;;;;5.13;2.30;;;;;;;18.79;85.86;101511.34;8285893;28;20037;-62
2023/09/30 17:24:34;;;;;;;4.65;2.33;;;;;;;18.74;84.09;101508.25;8285601;28;20128;-63
2023/09/30 17:28:35;;;;;;;7.68;2.60;;;;;;;18.55;87.41;101514.06;8287106;28;20045;-63
2023/09/30 17:32:36;;;;;;;7.00;2.42;;;;;;;18.16;87.84;101529.28;8284262;28;20559;-64
2023/09/30 17:36:37;;;;;;;6.85;2.42;;;;;;;18.09;87.81;101522.78;8286413;28;20042;-63
2023/09/30 17:40:39;;;;;;;4.85;2.35;;;;;;;18.02;88.20;101521.69;8285440;28;20270;-63
2023/09/30 17:44:39;;;;;;;4.47;2.50;;;;;;;18.11;85.59;101526.19;8286259;28;20042;-63
2023/09/30 17:48:45;;;;;;;6.80;2.95;;;;;;;17.89;87.18;101525.91;8282213;28;20041;-63
2023/09/30 17:52:45;;;;;;;7.13;2.00;;;;;;;17.38;91.29;101526.72;8284552;28;20075;-64
2023/09/30 17:56:46;;;;;;;6.13;2.55;;;;;;;17.34;91.63;101537.16;8285768;28;20048;-63
2023/09/30 18:00:49;;;;;;;4.93;2.22;;;;;;;17.22;92.07;101537.56;8285040;28;20034;-63
2023/09/30 18:04:49;;;;;;;6.03;2.67;;;;;;;17.17;95.36;101529.00;8264859;28;20038;-62
2023/09/30 18:08:50;;;;;;;5.15;2.45;;;;;;;16.99;94.78;101537.19;8275429;28;20034;-63
2023/09/30 18:12:50;;;;;;;6.15;2.63;;;;;;;16.89;94.87;101527.34;8283908;28;20087;-60
2023/09/30 18:16:51;;;;;;;5.63;2.45;;;;;;;16.96;94.78;101534.75;8281938;28;20472;-61
2023/09/30 18:20:51;;;;;;;5.55;2.22;;;;;;;16.86;94.89;101535.84;8281208;28;20034;-63
2023/09/30 18:24:52;;;;;;;5.53;2.65;;;;;;;16.75;95.36;101544.31;8279874;28;20049;-63
2023/09/30 18:28:54;;;;;;;6.70;2.83;;;;;;;16.71;94.16;101527.34;8275424;28;20041;-63
2023/09/30 18:32:55;;;;;;;7.50;3.30;;;;;;;16.64;95.53;101525.41;8280305;28;20096;-60
2023/09/30 18:36:56;;;;;;;10.77;3.50;;;;;;;16.50;96.89;101531.41;8281153;28;20042;-62
2023/09/30 18:40:56;;;;;;;6.18;3.45;;;;;;;16.56;96.79;101519.88;8275904;28;20050;-62